createdAt,value
2023-05-09T00:02:24.435Z,101864.00
2023-05-09T00:05:53.260Z,101863.34
2023-05-09T00:09:20.205Z,101861.52
2023-05-09T00:12:47.548Z,101860.19
2023-05-09T00:16:14.751Z,101860.23
2023-05-09T00:19:41.424Z,101859.27
2023-05-09T00:23:08.723Z,101859.86
2023-05-09T00:26:36.226Z,101856.48
2023-05-09T00:30:03.288Z,101853.98
2023-05-09T00:33:30.499Z,101854.59
2023-05-09T00:36:57.610Z,101853.13
2023-05-09T00:40:24.873Z,101854.05
2023-05-09T00:43:51.779Z,101854.48
2023-05-09T00:47:18.606Z,101850.23
2023-05-09T00:50:46.651Z,101850.66
2023-05-09T00:54:13.976Z,101846.94
2023-05-09T00:57:41.260Z,101848.04
2023-05-09T01:01:09.645Z,101847.22
2023-05-09T01:04:36.735Z,101843.13
2023-05-09T01:08:12.745Z,101841.08
2023-05-09T01:11:43.986Z,101838.71
2023-05-09T01:15:18.978Z,101832.52
2023-05-09T01:18:53.225Z,101837.23
2023-05-09T01:22:20.213Z,101837.09
2023-05-09T01:25:56.786Z,101837.32
2023-05-09T01:29:38.292Z,101837.85
2023-05-09T01:33:08.147Z,101837.52
2023-05-09T01:36:36.808Z,101838.53
2023-05-09T01:40:10.268Z,101838.53
2023-05-09T01:43:40.235Z,101838.52
2023-05-09T01:47:08.483Z,101837.12
2023-05-09T01:50:37.055Z,101832.27
2023-05-09T01:54:08.325Z,101835.20
2023-05-09T01:57:37.304Z,101834.37
2023-05-09T02:01:05.239Z,101827.34
2023-05-09T02:04:32.662Z,101829.08
2023-05-09T02:08:01.091Z,101825.86
2023-05-09T02:11:28.564Z,101826.08
2023-05-09T02:14:55.460Z,101820.27
2023-05-09T02:18:23.222Z,101819.25
2023-05-09T02:21:50.649Z,101816.88
2023-05-09T02:25:19.076Z,101817.60
2023-05-09T02:28:48.660Z,101817.45
2023-05-09T02:32:18.671Z,101818.17
2023-05-09T02:35:47.719Z,101818.70
2023-05-09T02:39:15.336Z,101818.21
2023-05-09T02:42:42.229Z,101814.96
2023-05-09T02:46:09.117Z,101817.23
2023-05-09T02:49:36.030Z,101815.52
2023-05-09T02:53:03.261Z,101813.12
2023-05-09T02:56:30.254Z,101812.11
2023-05-09T02:59:57.003Z,101811.11
2023-05-09T03:03:25.688Z,101808.70
2023-05-09T03:06:53.782Z,101810.42
2023-05-09T03:10:21.133Z,101810.80
2023-05-09T03:13:47.759Z,101812.34
2023-05-09T03:17:17.616Z,101811.30
2023-05-09T03:20:44.808Z,101815.74
2023-05-09T03:24:11.870Z,101814.17
2023-05-09T03:27:38.871Z,101816.73
2023-05-09T03:31:08.301Z,101819.98
2023-05-09T03:34:35.388Z,101818.92
2023-05-09T03:38:02.779Z,101820.11
2023-05-09T03:41:30.775Z,101819.91
2023-05-09T03:44:58.524Z,101821.63
2023-05-09T03:48:25.597Z,101822.48
2023-05-09T03:51:52.540Z,101823.52
2023-05-09T03:55:19.509Z,101825.94
2023-05-09T03:58:46.830Z,101826.98
2023-05-09T04:02:14.842Z,101830.41
2023-05-09T04:05:46.208Z,101825.75
2023-05-09T04:09:21.919Z,101829.54
2023-05-09T04:12:49.520Z,101828.45
2023-05-09T04:16:17.334Z,101826.73
2023-05-09T04:19:44.056Z,101829.09
2023-05-09T04:23:10.922Z,101828.41
2023-05-09T04:26:39.334Z,101831.31
2023-05-09T04:30:10.741Z,101831.59
2023-05-09T04:33:39.610Z,101829.13
2023-05-09T04:37:06.920Z,101833.36
2023-05-09T04:40:37.280Z,101839.45
2023-05-09T04:44:05.343Z,101842.59
2023-05-09T04:47:32.213Z,101841.91
2023-05-09T04:50:59.511Z,101839.94
2023-05-09T04:54:26.289Z,101838.29
2023-05-09T04:57:53.797Z,101835.56
2023-05-09T05:01:21.032Z,101835.59
2023-05-09T05:04:49.071Z,101836.84
2023-05-09T05:08:16.644Z,101834.15
2023-05-09T05:11:53.214Z,101834.41
2023-05-09T05:15:27.045Z,101837.61
2023-05-09T05:18:54.274Z,101837.05
2023-05-09T05:22:23.369Z,101838.38
2023-05-09T05:25:50.891Z,101835.20
2023-05-09T05:29:19.150Z,101840.15
2023-05-09T05:32:47.653Z,101839.71
2023-05-09T05:36:17.828Z,101840.33
2023-05-09T05:39:44.588Z,101834.54
2023-05-09T05:43:13.424Z,101832.54
2023-05-09T05:46:40.733Z,101831.20
2023-05-09T05:50:17.755Z,101829.54
2023-05-09T05:53:48.647Z,101828.19
2023-05-09T05:57:16.491Z,101829.09
2023-05-09T06:00:44.202Z,101830.13
2023-05-09T06:04:10.938Z,101831.70
2023-05-09T06:07:38.195Z,101825.86
2023-05-09T06:11:06.307Z,101831.08
2023-05-09T06:14:33.553Z,101832.11
2023-05-09T06:18:00.787Z,101829.86
2023-05-09T06:21:27.710Z,101827.54
2023-05-09T06:24:54.532Z,101827.02
2023-05-09T06:28:21.853Z,101827.52
2023-05-09T06:31:49.740Z,101822.84
2023-05-09T06:35:17.740Z,101817.30
2023-05-09T06:38:44.908Z,101816.96
2023-05-09T06:42:12.102Z,101810.20
2023-05-09T06:45:39.373Z,101810.38
2023-05-09T06:49:07.504Z,101811.92
2023-05-09T06:52:34.494Z,101810.17
2023-05-09T06:56:00.983Z,101809.77
2023-05-09T06:59:28.337Z,101808.29
2023-05-09T07:02:55.438Z,101801.80
2023-05-09T07:06:22.868Z,101799.98
2023-05-09T07:09:52.969Z,101800.84
2023-05-09T07:13:22.840Z,101792.39
2023-05-09T07:16:49.983Z,101789.88
2023-05-09T07:20:17.445Z,101786.10
2023-05-09T07:23:46.033Z,101778.21
2023-05-09T07:27:13.296Z,101777.63
2023-05-09T07:30:40.433Z,101775.58
2023-05-09T07:34:07.441Z,101777.02
2023-05-09T07:37:35.212Z,101770.86
2023-05-09T07:41:02.787Z,101768.98
2023-05-09T07:44:29.700Z,101767.14
2023-05-09T07:47:59.180Z,101761.11
2023-05-09T07:51:27.265Z,101753.20
2023-05-09T07:54:54.943Z,101747.88
2023-05-09T07:58:21.948Z,101746.20
2023-05-09T08:01:49.176Z,101744.13
2023-05-09T08:05:16.671Z,101735.73
2023-05-09T08:08:44.858Z,101735.34
2023-05-09T08:12:13.195Z,101727.20
2023-05-09T08:15:40.513Z,101733.03
2023-05-09T08:19:07.707Z,101732.87
2023-05-09T08:22:37.853Z,101726.86
2023-05-09T08:26:05.210Z,101724.33
2023-05-09T08:29:33.444Z,101722.30
2023-05-09T08:33:02.152Z,101721.54
2023-05-09T08:36:29.129Z,101710.65
2023-05-09T08:39:56.534Z,101702.94
2023-05-09T08:43:25.295Z,101706.58
2023-05-09T08:46:58.348Z,101701.98
2023-05-09T08:50:28.103Z,101694.16
2023-05-09T08:53:55.575Z,101692.27
2023-05-09T08:57:22.221Z,101686.43
2023-05-09T09:00:50.543Z,101682.38
2023-05-09T09:04:17.710Z,101679.64
2023-05-09T09:07:46.732Z,101678.05
2023-05-09T09:11:17.499Z,101676.66
2023-05-09T09:14:49.324Z,101685.36
2023-05-09T09:18:22.350Z,101681.40
2023-05-09T09:21:48.293Z,101681.69
2023-05-09T09:25:14.551Z,101679.02
2023-05-09T09:28:42.286Z,101676.46
2023-05-09T09:32:10.133Z,101678.50
2023-05-09T09:35:43.761Z,101663.95
2023-05-09T09:39:10.898Z,101662.96
2023-05-09T09:42:45.896Z,101662.45
2023-05-09T09:46:16.590Z,101667.77
2023-05-09T09:49:49.397Z,101656.34
2023-05-09T09:53:16.657Z,101653.67
2023-05-09T09:56:46.297Z,101654.48
2023-05-09T10:00:16.948Z,101641.16
2023-05-09T10:03:46.447Z,101632.65
2023-05-09T10:07:15.085Z,101640.80
2023-05-09T10:10:46.852Z,101628.92
2023-05-09T10:14:13.772Z,101625.83
2023-05-09T10:17:41.269Z,101615.20
2023-05-09T10:21:14.362Z,101615.11
2023-05-09T10:24:48.624Z,101605.69
2023-05-09T10:28:20.198Z,101599.69
2023-05-09T10:31:49.035Z,101592.23
2023-05-09T10:35:34.275Z,101590.88
2023-05-09T10:39:07.892Z,101586.92
2023-05-09T10:42:38.527Z,101581.76
2023-05-09T10:46:09.265Z,101582.20
2023-05-09T10:49:38.320Z,101576.37
2023-05-09T10:53:18.604Z,101569.22
2023-05-09T10:56:45.693Z,101567.41
2023-05-09T11:00:15.218Z,101566.05
2023-05-09T11:03:59.034Z,101555.18
2023-05-09T11:07:30.503Z,101548.54
2023-05-09T11:11:01.590Z,101547.50
2023-05-09T11:14:48.188Z,101546.45
2023-05-09T11:18:16.217Z,101535.75
2023-05-09T11:22:03.908Z,101518.33
2023-05-09T11:25:45.179Z,101532.63
2023-05-09T11:29:14.092Z,101529.52
2023-05-09T11:32:47.768Z,101520.54
2023-05-09T11:36:25.862Z,101523.88
2023-05-09T11:40:05.044Z,101517.11
2023-05-09T11:43:32.157Z,101509.23
2023-05-09T11:47:01.194Z,101504.52
2023-05-09T11:50:28.259Z,101495.21
2023-05-09T11:53:56.387Z,101490.92
2023-05-09T11:57:24.129Z,101484.80
2023-05-09T12:00:53.999Z,101484.34
2023-05-09T12:04:22.419Z,101484.67
2023-05-09T12:07:50.387Z,101479.64
2023-05-09T12:11:17.671Z,101473.02
2023-05-09T12:14:57.005Z,101464.48
2023-05-09T12:18:42.659Z,101457.96
2023-05-09T12:22:14.729Z,101454.25
2023-05-09T12:25:47.962Z,101461.38
2023-05-09T12:29:16.298Z,101454.77
2023-05-09T12:32:44.009Z,101453.84
2023-05-09T12:36:13.959Z,101440.82
2023-05-09T12:39:40.634Z,101434.33
2023-05-09T12:43:31.482Z,101429.83
2023-05-09T12:47:15.448Z,101431.27
2023-05-09T12:50:51.712Z,101419.52
2023-05-09T12:54:25.886Z,101403.13
2023-05-09T12:58:03.600Z,101400.20
2023-05-09T13:01:33.827Z,101407.45
2023-05-09T13:05:24.534Z,101396.00
2023-05-09T13:09:03.353Z,101390.95
2023-05-09T13:12:31.086Z,101385.54
2023-05-09T13:15:58.084Z,101384.11
2023-05-09T13:19:25.020Z,101375.88
2023-05-09T13:22:51.682Z,101376.17
2023-05-09T13:26:19.488Z,101366.64
2023-05-09T13:29:48.526Z,101367.05
2023-05-09T13:33:25.276Z,101368.52
2023-05-09T13:36:58.183Z,101367.88
2023-05-09T13:40:28.014Z,101354.68
2023-05-09T13:43:56.963Z,101340.01
2023-05-09T13:47:26.812Z,101338.92
2023-05-09T13:50:57.809Z,101336.60
2023-05-09T13:54:24.743Z,101335.92
2023-05-09T13:57:52.263Z,101335.95
2023-05-09T14:01:19.425Z,101323.56
2023-05-09T14:04:46.612Z,101317.89
2023-05-09T14:08:14.057Z,101314.44
2023-05-09T14:11:44.926Z,101308.55
2023-05-09T14:15:12.970Z,101301.89
2023-05-09T14:18:39.978Z,101299.45
2023-05-09T14:22:07.029Z,101286.19
2023-05-09T14:25:34.266Z,101290.38
2023-05-09T14:29:03.785Z,101284.52
2023-05-09T14:32:30.998Z,101281.11
2023-05-09T14:35:57.797Z,101280.64
2023-05-09T14:39:26.396Z,101274.25
2023-05-09T14:42:54.565Z,101265.56
2023-05-09T14:46:21.129Z,101261.13
2023-05-09T14:49:48.196Z,101265.10
2023-05-09T14:53:15.621Z,101253.56
2023-05-09T14:56:42.373Z,101254.35
2023-05-09T15:00:21.950Z,101253.79
2023-05-09T15:03:50.305Z,101248.20
2023-05-09T15:07:17.032Z,101247.29
2023-05-09T15:10:44.282Z,101240.59
2023-05-09T15:14:11.253Z,101237.34
2023-05-09T15:17:38.690Z,101227.02
2023-05-09T15:21:05.969Z,101217.52
2023-05-09T15:24:33.145Z,101218.13
2023-05-09T15:28:00.219Z,101212.97
2023-05-09T15:31:27.487Z,101213.09
2023-05-09T15:34:54.843Z,101206.46
2023-05-09T15:38:21.288Z,101201.77
2023-05-09T15:41:48.052Z,101194.98
2023-05-09T15:45:16.015Z,101188.24
2023-05-09T15:48:43.414Z,101180.58
2023-05-09T15:52:11.740Z,101176.67
2023-05-09T15:55:38.916Z,101179.83
2023-05-09T15:59:05.789Z,101175.94
2023-05-09T16:02:33.120Z,101169.00
2023-05-09T16:06:01.666Z,101166.71
2023-05-09T16:09:28.803Z,101159.72
2023-05-09T16:12:56.168Z,101160.21
2023-05-09T16:16:23.722Z,101151.19
2023-05-09T16:19:51.068Z,101148.22
2023-05-09T16:23:17.758Z,101145.03
2023-05-09T16:26:44.458Z,101136.82
2023-05-09T16:30:13.927Z,101135.83
2023-05-09T16:33:41.742Z,101134.70
2023-05-09T16:37:08.764Z,101130.40
2023-05-09T16:40:35.408Z,101129.71
2023-05-09T16:44:03.361Z,101126.42
2023-05-09T16:47:30.915Z,101122.18
2023-05-09T16:51:00.351Z,101116.07
2023-05-09T16:54:27.573Z,101113.88
2023-05-09T16:57:54.505Z,101118.45
2023-05-09T17:01:21.593Z,101118.13
2023-05-09T17:04:49.107Z,101105.73
2023-05-09T17:08:16.862Z,101102.89
2023-05-09T17:11:43.981Z,101098.40
2023-05-09T17:15:14.037Z,101100.79
2023-05-09T17:18:46.199Z,101099.13
2023-05-09T17:22:13.227Z,101095.38
2023-05-09T17:25:40.261Z,101091.49
2023-05-09T17:29:07.350Z,101090.13
2023-05-09T17:32:35.011Z,101087.59
2023-05-09T17:36:02.931Z,101083.36
2023-05-09T17:39:31.461Z,101085.44
2023-05-09T17:42:58.522Z,101085.33
2023-05-09T17:46:28.509Z,101088.64
2023-05-09T17:49:55.908Z,101087.27
2023-05-09T17:53:27.978Z,101084.30
2023-05-09T17:57:00.032Z,101083.41
2023-05-09T18:00:27.570Z,101089.73
2023-05-09T18:03:54.998Z,101088.27
2023-05-09T18:07:24.747Z,101092.45
2023-05-09T18:10:55.223Z,101088.37
2023-05-09T18:14:27.539Z,101087.98
2023-05-09T18:17:59.740Z,101092.68
2023-05-09T18:21:26.655Z,101095.67
2023-05-09T18:24:53.593Z,101088.77
2023-05-09T18:28:25.002Z,101083.24
2023-05-09T18:31:51.939Z,101080.31
2023-05-09T18:35:19.605Z,101083.21
2023-05-09T18:38:48.191Z,101083.79
2023-05-09T18:42:16.448Z,101085.92
2023-05-09T18:45:45.369Z,101084.65
2023-05-09T18:49:12.601Z,101089.55
2023-05-09T18:52:39.735Z,101089.23
2023-05-09T18:56:08.001Z,101090.97
2023-05-09T18:59:34.844Z,101092.25
2023-05-09T19:03:01.971Z,101089.55
2023-05-09T19:06:29.422Z,101089.08
2023-05-09T19:09:56.654Z,101091.67
2023-05-09T19:13:24.137Z,101088.20
2023-05-09T19:16:51.758Z,101088.67
2023-05-09T19:20:19.551Z,101083.87
2023-05-09T19:23:49.392Z,101080.33
2023-05-09T19:27:18.628Z,101089.39
2023-05-09T19:30:48.900Z,101087.34
2023-05-09T19:34:16.442Z,101088.62
2023-05-09T19:37:44.249Z,101088.45
2023-05-09T19:41:14.020Z,101086.94
2023-05-09T19:44:41.818Z,101087.84
2023-05-09T19:48:15.601Z,101085.76
2023-05-09T19:51:43.828Z,101080.08
2023-05-09T19:55:12.976Z,101080.94
2023-05-09T19:58:41.147Z,101079.55
2023-05-09T20:02:08.816Z,101080.11
2023-05-09T20:09:22.227Z,101080.42
2023-05-09T20:12:49.230Z,101078.10
2023-05-09T20:16:16.259Z,101082.80
2023-05-09T20:19:43.520Z,101082.71
2023-05-09T20:23:10.803Z,101082.98
2023-05-09T20:26:37.637Z,101076.16
2023-05-09T20:30:04.865Z,101074.92
2023-05-09T20:33:32.289Z,101072.40
2023-05-09T20:36:59.913Z,101076.86
2023-05-09T20:40:26.873Z,101072.86
2023-05-09T20:43:56.223Z,101068.42
2023-05-09T20:47:23.115Z,101069.17
2023-05-09T20:50:50.579Z,101072.40
2023-05-09T20:54:20.945Z,101071.77
2023-05-09T20:57:48.128Z,101069.86
2023-05-09T21:01:15.334Z,101064.34
2023-05-09T21:04:41.998Z,101064.85
2023-05-09T21:08:12.270Z,101060.48
2023-05-09T21:11:40.056Z,101058.95
2023-05-09T21:15:09.605Z,101061.55
2023-05-09T21:18:38.998Z,101060.52
2023-05-09T21:22:05.767Z,101061.55
2023-05-09T21:25:32.537Z,101059.11
2023-05-09T21:28:59.417Z,101055.34
2023-05-09T21:32:26.729Z,101052.63
2023-05-09T21:35:54.204Z,101050.08
2023-05-09T21:39:21.095Z,101053.77
2023-05-09T21:42:50.491Z,101056.17
2023-05-09T21:46:20.038Z,101058.24
2023-05-09T21:49:47.072Z,101056.67
2023-05-09T21:53:13.755Z,101059.58
2023-05-09T21:56:42.873Z,101060.10
2023-05-09T22:00:14.710Z,101060.81
2023-05-09T22:03:42.550Z,101054.58
2023-05-09T22:07:12.089Z,101052.96
2023-05-09T22:10:39.142Z,101048.77
2023-05-09T22:14:06.943Z,101050.82
2023-05-09T22:17:34.248Z,101053.15
2023-05-09T22:21:02.582Z,101052.08
2023-05-09T22:24:29.796Z,101053.48
2023-05-09T22:27:56.950Z,101052.65
2023-05-09T22:31:23.922Z,101049.88
2023-05-09T22:34:51.188Z,101052.14
2023-05-09T22:38:18.313Z,101047.41
2023-05-09T22:41:45.497Z,101046.00
2023-05-09T22:45:14.444Z,101043.52
2023-05-09T22:48:41.186Z,101043.48
2023-05-09T22:52:08.547Z,101044.08
2023-05-09T22:55:35.355Z,101042.56
2023-05-09T22:59:02.957Z,101042.23
2023-05-09T23:02:30.437Z,101042.57
2023-05-09T23:05:57.236Z,101039.05
2023-05-09T23:09:25.236Z,101040.63
2023-05-09T23:12:52.072Z,101043.30
2023-05-09T23:16:19.220Z,101041.76
2023-05-09T23:19:46.493Z,101036.79
2023-05-09T23:23:15.270Z,101034.04
2023-05-09T23:26:45.356Z,101035.10
2023-05-09T23:30:13.892Z,101031.13
2023-05-09T23:33:43.584Z,101027.33
2023-05-09T23:37:10.400Z,101026.68
2023-05-09T23:40:38.810Z,101023.67
2023-05-09T23:44:07.860Z,101020.55
2023-05-09T23:47:35.450Z,101014.58
2023-05-09T23:51:02.338Z,101015.91
2023-05-09T23:54:29.128Z,101008.13
2023-05-09T23:57:56.313Z,101007.42
